sensor_id;sensor_type;location;lat;lon;timestamp;pressure;altitude;pressure_sealevel;temperature;humidity
36284;BME280;56085;48.910;9.478;2023-12-04T00:02:04;98358.66;;;1.53;46.35
36284;BME280;56085;48.910;9.478;2023-12-04T00:04:29;98347.25;;;1.51;45.54
36284;BME280;56085;48.910;9.478;2023-12-04T00:06:55;98346.34;;;1.56;46.09
36284;BME280;56085;48.910;9.478;2023-12-04T00:09:20;98345.41;;;1.47;46.58
36284;BME280;56085;48.910;9.478;2023-12-04T00:11:46;98335.00;;;1.49;46.78
36284;BME280;56085;48.910;9.478;2023-12-04T00:14:11;98333.19;;;1.44;46.83
36284;BME280;56085;48.910;9.478;2023-12-04T00:16:36;98327.56;;;1.41;46.62
36284;BME280;56085;48.910;9.478;2023-12-04T00:19:02;98316.97;;;1.53;46.35
36284;BME280;56085;48.910;9.478;2023-12-04T00:21:27;98311.00;;;1.51;46.59
36284;BME280;56085;48.910;9.478;2023-12-04T00:23:52;98309.50;;;1.45;46.35
36284;BME280;56085;48.910;9.478;2023-12-04T00:26:18;98311.44;;;1.58;46.22
36284;BME280;56085;48.910;9.478;2023-12-04T00:28:43;98320.78;;;1.52;46.49
36284;BME280;56085;48.910;9.478;2023-12-04T00:31:09;98315.03;;;1.39;47.03
36284;BME280;56085;48.910;9.478;2023-12-04T00:33:35;98325.06;;;1.11;47.40
36284;BME280;56085;48.910;9.478;2023-12-04T00:36:00;98320.53;;;1.20;46.97
36284;BME280;56085;48.910;9.478;2023-12-04T00:38:26;98314.72;;;1.27;47.28
36284;BME280;56085;48.910;9.478;2023-12-04T00:40:51;98309.72;;;1.15;47.02
36284;BME280;56085;48.910;9.478;2023-12-04T00:43:16;98297.13;;;1.19;46.91
36284;BME280;56085;48.910;9.478;2023-12-04T00:45:41;98298.56;;;1.31;47.02
36284;BME280;56085;48.910;9.478;2023-12-04T00:48:07;98297.66;;;1.21;46.49
36284;BME280;56085;48.910;9.478;2023-12-04T00:50:32;98296.44;;;1.28;46.87
36284;BME280;56085;48.910;9.478;2023-12-04T00:52:57;98296.94;;;1.30;46.76
36284;BME280;56085;48.910;9.478;2023-12-04T00:55:23;98287.56;;;1.22;46.92
36284;BME280;56085;48.910;9.478;2023-12-04T00:57:48;98283.72;;;1.23;46.64
36284;BME280;56085;48.910;9.478;2023-12-04T01:00:13;98276.75;;;1.17;46.52
36284;BME280;56085;48.910;9.478;2023-12-04T01:02:39;98277.03;;;1.15;46.91
36284;BME280;56085;48.910;9.478;2023-12-04T01:05:05;98284.34;;;1.20;46.60
36284;BME280;56085;48.910;9.478;2023-12-04T01:07:30;98276.41;;;1.04;47.09
36284;BME280;56085;48.910;9.478;2023-12-04T01:09:55;98271.34;;;0.98;46.64
36284;BME280;56085;48.910;9.478;2023-12-04T01:12:21;98273.38;;;0.92;47.23
36284;BME280;56085;48.910;9.478;2023-12-04T01:14:47;98271.75;;;0.91;47.30
36284;BME280;56085;48.910;9.478;2023-12-04T01:17:12;98259.94;;;0.82;47.59
36284;BME280;56085;48.910;9.478;2023-12-04T01:19:37;98251.78;;;0.96;47.05
36284;BME280;56085;48.910;9.478;2023-12-04T01:22:03;98254.31;;;0.92;47.03
36284;BME280;56085;48.910;9.478;2023-12-04T01:24:28;98247.63;;;0.84;46.86
36284;BME280;56085;48.910;9.478;2023-12-04T01:26:53;98251.16;;;0.85;47.41
36284;BME280;56085;48.910;9.478;2023-12-04T01:29:18;98257.28;;;0.77;47.25
36284;BME280;56085;48.910;9.478;2023-12-04T01:31:44;98248.09;;;0.73;47.55
36284;BME280;56085;48.910;9.478;2023-12-04T01:34:09;98241.16;;;0.80;47.34
36284;BME280;56085;48.910;9.478;2023-12-04T01:36:34;98240.06;;;0.81;47.27
36284;BME280;56085;48.910;9.478;2023-12-04T01:39:00;98239.31;;;0.62;47.68
36284;BME280;56085;48.910;9.478;2023-12-04T01:41:25;98240.22;;;0.71;47.42
36284;BME280;56085;48.910;9.478;2023-12-04T01:43:50;98236.34;;;0.58;47.48
36284;BME280;56085;48.910;9.478;2023-12-04T01:46:17;98232.50;;;0.78;47.31
36284;BME280;56085;48.910;9.478;2023-12-04T01:48:44;98223.59;;;0.73;47.45
36284;BME280;56085;48.910;9.478;2023-12-04T01:51:11;98231.09;;;0.81;47.31
36284;BME280;56085;48.910;9.478;2023-12-04T01:53:39;98223.84;;;0.90;47.05
36284;BME280;56085;48.910;9.478;2023-12-04T01:56:05;98224.63;;;0.77;47.49
36284;BME280;56085;48.910;9.478;2023-12-04T01:58:31;98225.00;;;0.70;47.76
36284;BME280;56085;48.910;9.478;2023-12-04T02:00:56;98219.28;;;0.72;47.55
36284;BME280;56085;48.910;9.478;2023-12-04T02:03:22;98223.69;;;0.67;47.48
36284;BME280;56085;48.910;9.478;2023-12-04T02:05:48;98223.53;;;0.78;47.47
36284;BME280;56085;48.910;9.478;2023-12-04T02:08:14;98227.09;;;0.59;47.67
36284;BME280;56085;48.910;9.478;2023-12-04T02:10:40;98224.47;;;0.54;47.61
36284;BME280;56085;48.910;9.478;2023-12-04T02:13:06;98230.84;;;0.63;48.00
36284;BME280;56085;48.910;9.478;2023-12-04T02:15:32;98223.09;;;0.71;47.64
36284;BME280;56085;48.910;9.478;2023-12-04T02:17:57;98216.78;;;0.89;47.43
36284;BME280;56085;48.910;9.478;2023-12-04T02:20:33;98211.06;;;1.04;46.88
36284;BME280;56085;48.910;9.478;2023-12-04T02:23:02;98207.81;;;0.89;47.36
36284;BME280;56085;48.910;9.478;2023-12-04T02:25:28;98214.22;;;0.79;47.58
36284;BME280;56085;48.910;9.478;2023-12-04T02:27:56;98216.69;;;0.94;46.98
36284;BME280;56085;48.910;9.478;2023-12-04T02:30:24;98215.69;;;0.90;47.29
36284;BME280;56085;48.910;9.478;2023-12-04T02:32:51;98202.50;;;0.97;46.97
36284;BME280;56085;48.910;9.478;2023-12-04T02:35:23;98204.91;;;0.99;47.07
36284;BME280;56085;48.910;9.478;2023-12-04T02:37:49;98196.44;;;1.00;46.79
36284;BME280;56085;48.910;9.478;2023-12-04T02:40:16;98190.50;;;0.98;46.79
36284;BME280;56085;48.910;9.478;2023-12-04T02:42:41;98187.44;;;0.86;47.00
36284;BME280;56085;48.910;9.478;2023-12-04T02:45:07;98182.81;;;1.00;47.08
36284;BME280;56085;48.910;9.478;2023-12-04T02:47:33;98176.16;;;0.93;46.81
36284;BME280;56085;48.910;9.478;2023-12-04T02:49:58;98179.28;;;0.86;47.07
36284;BME280;56085;48.910;9.478;2023-12-04T02:52:23;98181.97;;;0.72;47.72
36284;BME280;56085;48.910;9.478;2023-12-04T02:54:49;98182.78;;;0.73;47.70
36284;BME280;56085;48.910;9.478;2023-12-04T02:57:14;98180.72;;;0.50;47.76
36284;BME280;56085;48.910;9.478;2023-12-04T02:59:39;98182.50;;;0.41;47.75
36284;BME280;56085;48.910;9.478;2023-12-04T03:02:05;98181.31;;;0.47;47.89
36284;BME280;56085;48.910;9.478;2023-12-04T03:04:31;98184.69;;;0.39;47.65
36284;BME280;56085;48.910;9.478;2023-12-04T03:06:57;98162.00;;;0.30;48.00
36284;BME280;56085;48.910;9.478;2023-12-04T03:09:22;98159.72;;;0.37;48.19
36284;BME280;56085;48.910;9.478;2023-12-04T03:11:48;98148.78;;;0.56;47.96
36284;BME280;56085;48.910;9.478;2023-12-04T03:14:13;98137.53;;;0.63;47.46
36284;BME280;56085;48.910;9.478;2023-12-04T03:16:39;98139.84;;;0.56;47.60
36284;BME280;56085;48.910;9.478;2023-12-04T03:19:04;98138.81;;;0.65;47.25
36284;BME280;56085;48.910;9.478;2023-12-04T03:21:30;98135.25;;;0.51;47.46
36284;BME280;56085;48.910;9.478;2023-12-04T03:23:56;98123.56;;;0.37;48.08
36284;BME280;56085;48.910;9.478;2023-12-04T03:26:21;98114.44;;;0.60;47.38
36284;BME280;56085;48.910;9.478;2023-12-04T03:28:46;98115.22;;;0.47;47.92
36284;BME280;56085;48.910;9.478;2023-12-04T03:31:12;98111.13;;;0.63;47.36
36284;BME280;56085;48.910;9.478;2023-12-04T03:33:37;98107.28;;;0.64;47.67
36284;BME280;56085;48.910;9.478;2023-12-04T03:36:02;98103.25;;;0.76;46.90
36284;BME280;56085;48.910;9.478;2023-12-04T03:38:28;98102.34;;;0.80;46.70
36284;BME280;56085;48.910;9.478;2023-12-04T03:40:53;98100.34;;;0.86;47.10
36284;BME280;56085;48.910;9.478;2023-12-04T03:43:18;98094.09;;;0.85;46.81
36284;BME280;56085;48.910;9.478;2023-12-04T03:45:44;98089.25;;;0.96;46.43
36284;BME280;56085;48.910;9.478;2023-12-04T03:48:09;98081.81;;;0.88;46.92
36284;BME280;56085;48.910;9.478;2023-12-04T03:50:34;98080.28;;;0.68;47.30
36284;BME280;56085;48.910;9.478;2023-12-04T03:52:59;98069.84;;;0.42;47.58
36284;BME280;56085;48.910;9.478;2023-12-04T03:55:25;98060.28;;;0.45;47.88
36284;BME280;56085;48.910;9.478;2023-12-04T03:57:50;98055.94;;;0.44;47.39
36284;BME280;56085;48.910;9.478;2023-12-04T04:00:16;98054.66;;;0.41;47.30
36284;BME280;56085;48.910;9.478;2023-12-04T04:02:42;98053.56;;;0.56;47.19
36284;BME280;56085;48.910;9.478;2023-12-04T04:05:08;98055.50;;;0.56;47.19
36284;BME280;56085;48.910;9.478;2023-12-04T04:07:33;98049.84;;;0.66;47.62
36284;BME280;56085;48.910;9.478;2023-12-04T04:09:58;98050.31;;;0.40;47.02
36284;BME280;56085;48.910;9.478;2023-12-04T04:12:24;98045.00;;;0.63;47.05
36284;BME280;56085;48.910;9.478;2023-12-04T04:14:49;98043.16;;;0.58;47.28
36284;BME280;56085;48.910;9.478;2023-12-04T04:17:14;98042.41;;;0.72;46.57
36284;BME280;56085;48.910;9.478;2023-12-04T04:19:40;98048.72;;;0.53;47.34
36284;BME280;56085;48.910;9.478;2023-12-04T04:22:06;98048.44;;;0.55;47.14
36284;BME280;56085;48.910;9.478;2023-12-04T04:24:31;98047.81;;;0.58;47.64
36284;BME280;56085;48.910;9.478;2023-12-04T04:26:56;98052.75;;;0.69;47.04
36284;BME280;56085;48.910;9.478;2023-12-04T04:29:21;98046.81;;;0.81;46.59
36284;BME280;56085;48.910;9.478;2023-12-04T04:31:47;98055.81;;;0.82;46.93
36284;BME280;56085;48.910;9.478;2023-12-04T04:34:12;98055.41;;;0.75;47.20
36284;BME280;56085;48.910;9.478;2023-12-04T04:36:37;98058.72;;;0.85;46.70
36284;BME280;56085;48.910;9.478;2023-12-04T04:39:03;98052.34;;;0.90;47.09
36284;BME280;56085;48.910;9.478;2023-12-04T04:41:28;98058.63;;;0.91;46.73
36284;BME280;56085;48.910;9.478;2023-12-04T04:43:53;98060.63;;;0.71;47.02
36284;BME280;56085;48.910;9.478;2023-12-04T04:46:19;98059.00;;;0.84;47.13
36284;BME280;56085;48.910;9.478;2023-12-04T04:48:44;98062.13;;;1.05;46.61
36284;BME280;56085;48.910;9.478;2023-12-04T04:51:10;98062.94;;;1.06;46.37
36284;BME280;56085;48.910;9.478;2023-12-04T04:53:35;98058.63;;;0.91;46.85
36284;BME280;56085;48.910;9.478;2023-12-04T04:56:00;98064.84;;;0.91;47.09
36284;BME280;56085;48.910;9.478;2023-12-04T04:58:26;98060.13;;;0.97;46.67
36284;BME280;56085;48.910;9.478;2023-12-04T05:00:51;98062.22;;;1.00;47.14
36284;BME280;56085;48.910;9.478;2023-12-04T05:03:16;98060.63;;;0.99;46.84
36284;BME280;56085;48.910;9.478;2023-12-04T05:05:42;98063.25;;;1.04;46.97
36284;BME280;56085;48.910;9.478;2023-12-04T05:08:07;98059.09;;;1.07;46.32
36284;BME280;56085;48.910;9.478;2023-12-04T05:10:32;98059.09;;;1.07;46.40
36284;BME280;56085;48.910;9.478;2023-12-04T05:12:57;98056.66;;;1.19;46.43
36284;BME280;56085;48.910;9.478;2023-12-04T05:15:23;98055.88;;;1.04;46.76
36284;BME280;56085;48.910;9.478;2023-12-04T05:17:48;98051.91;;;1.11;46.72
36284;BME280;56085;48.910;9.478;2023-12-04T05:20:13;98050.44;;;1.04;46.84
36284;BME280;56085;48.910;9.478;2023-12-04T05:22:39;98038.94;;;0.94;47.12
36284;BME280;56085;48.910;9.478;2023-12-04T05:25:05;98037.84;;;0.81;47.00
36284;BME280;56085;48.910;9.478;2023-12-04T05:27:31;98034.72;;;0.74;47.30
36284;BME280;56085;48.910;9.478;2023-12-04T05:29:56;98038.84;;;0.85;46.95
36284;BME280;56085;48.910;9.478;2023-12-04T05:32:21;98024.22;;;0.95;47.13
36284;BME280;56085;48.910;9.478;2023-12-04T05:34:47;98029.66;;;1.09;46.57
36284;BME280;56085;48.910;9.478;2023-12-04T05:37:12;98024.72;;;0.97;46.99
36284;BME280;56085;48.910;9.478;2023-12-04T05:39:37;98025.75;;;0.87;47.10
36284;BME280;56085;48.910;9.478;2023-12-04T05:42:03;98020.28;;;0.87;47.25
36284;BME280;56085;48.910;9.478;2023-12-04T05:44:28;98016.34;;;0.93;46.83
36284;BME280;56085;48.910;9.478;2023-12-04T05:46:53;98012.06;;;0.64;47.59
36284;BME280;56085;48.910;9.478;2023-12-04T05:49:18;98004.00;;;0.73;47.39
36284;BME280;56085;48.910;9.478;2023-12-04T05:51:44;98000.53;;;0.81;47.15
36284;BME280;56085;48.910;9.478;2023-12-04T05:54:09;97997.28;;;0.93;47.09
36284;BME280;56085;48.910;9.478;2023-12-04T05:56:34;97995.88;;;0.96;46.90
36284;BME280;56085;48.910;9.478;2023-12-04T05:59:00;97982.47;;;0.99;46.84
36284;BME280;56085;48.910;9.478;2023-12-04T06:01:25;97979.53;;;1.10;46.55
36284;BME280;56085;48.910;9.478;2023-12-04T06:03:50;97978.84;;;1.04;46.65
36284;BME280;56085;48.910;9.478;2023-12-04T06:06:15;97981.50;;;1.18;46.63
36284;BME280;56085;48.910;9.478;2023-12-04T06:08:41;97974.66;;;1.20;46.48
36284;BME280;56085;48.910;9.478;2023-12-04T06:11:06;97987.16;;;1.21;46.31
36284;BME280;56085;48.910;9.478;2023-12-04T06:13:31;97984.50;;;1.30;46.39
36284;BME280;56085;48.910;9.478;2023-12-04T06:15:57;97987.56;;;1.29;46.23
36284;BME280;56085;48.910;9.478;2023-12-04T06:18:22;97987.09;;;1.35;46.46
36284;BME280;56085;48.910;9.478;2023-12-04T06:20:47;97982.41;;;1.50;46.04
36284;BME280;56085;48.910;9.478;2023-12-04T06:23:14;97979.22;;;1.48;46.08
36284;BME280;56085;48.910;9.478;2023-12-04T06:25:40;97976.97;;;1.50;45.74
36284;BME280;56085;48.910;9.478;2023-12-04T06:28:05;97984.34;;;1.49;45.81
36284;BME280;56085;48.910;9.478;2023-12-04T06:30:31;97982.41;;;1.50;45.88
36284;BME280;56085;48.910;9.478;2023-12-04T06:32:56;97979.75;;;1.59;45.77
36284;BME280;56085;48.910;9.478;2023-12-04T06:35:22;97983.34;;;1.68;45.01
36284;BME280;56085;48.910;9.478;2023-12-04T06:37:53;97979.97;;;1.62;45.78
36284;BME280;56085;48.910;9.478;2023-12-04T06:40:19;97979.03;;;1.67;45.80
36284;BME280;56085;48.910;9.478;2023-12-04T06:42:45;97985.56;;;1.66;46.06
36284;BME280;56085;48.910;9.478;2023-12-04T06:45:11;97982.78;;;1.57;46.23
36284;BME280;56085;48.910;9.478;2023-12-04T06:47:36;97985.16;;;1.72;45.70
36284;BME280;56085;48.910;9.478;2023-12-04T06:50:02;97985.88;;;1.64;45.78
36284;BME280;56085;48.910;9.478;2023-12-04T06:52:28;97986.25;;;1.71;45.45
36284;BME280;56085;48.910;9.478;2023-12-04T06:54:53;97992.81;;;1.70;46.02
36284;BME280;56085;48.910;9.478;2023-12-04T06:57:18;97984.34;;;1.72;45.75
36284;BME280;56085;48.910;9.478;2023-12-04T06:59:44;97988.25;;;1.80;46.10
36284;BME280;56085;48.910;9.478;2023-12-04T07:02:09;97982.03;;;1.88;45.70
36284;BME280;56085;48.910;9.478;2023-12-04T07:04:34;97980.91;;;1.89;45.40
36284;BME280;56085;48.910;9.478;2023-12-04T07:07:00;97977.09;;;1.90;45.63
36284;BME280;56085;48.910;9.478;2023-12-04T07:09:31;97977.09;;;1.90;45.16
36284;BME280;56085;48.910;9.478;2023-12-04T07:11:56;97973.72;;;1.93;45.58
36284;BME280;56085;48.910;9.478;2023-12-04T07:14:21;97971.53;;;2.04;45.38
36284;BME280;56085;48.910;9.478;2023-12-04T07:16:47;97965.75;;;2.05;45.54
36284;BME280;56085;48.910;9.478;2023-12-04T07:19:12;97959.69;;;2.08;45.02
36284;BME280;56085;48.910;9.478;2023-12-04T07:21:39;97963.66;;;2.02;44.98
36284;BME280;56085;48.910;9.478;2023-12-04T07:24:06;97961.84;;;1.89;45.59
36284;BME280;56085;48.910;9.478;2023-12-04T07:26:33;97966.53;;;1.97;45.20
36284;BME280;56085;48.910;9.478;2023-12-04T07:28:59;97960.47;;;2.00;45.57
36284;BME280;56085;48.910;9.478;2023-12-04T07:31:24;97952.06;;;2.19;45.21
36284;BME280;56085;48.910;9.478;2023-12-04T07:33:53;97944.34;;;2.21;44.84
36284;BME280;56085;48.910;9.478;2023-12-04T07:36:18;97942.44;;;2.31;44.94
36284;BME280;56085;48.910;9.478;2023-12-04T07:38:43;97941.97;;;2.29;44.73
36284;BME280;56085;48.910;9.478;2023-12-04T07:41:08;97938.72;;;2.18;44.93
36284;BME280;56085;48.910;9.478;2023-12-04T07:43:34;97935.22;;;2.26;45.06
36284;BME280;56085;48.910;9.478;2023-12-04T07:45:59;97917.09;;;2.30;45.48
36284;BME280;56085;48.910;9.478;2023-12-04T07:48:25;97913.13;;;2.45;44.69
36284;BME280;56085;48.910;9.478;2023-12-04T07:50:50;97915.34;;;2.34;44.58
36284;BME280;56085;48.910;9.478;2023-12-04T07:53:15;97916.00;;;2.40;45.07
36284;BME280;56085;48.910;9.478;2023-12-04T07:55:40;97912.50;;;2.57;44.42
36284;BME280;56085;48.910;9.478;2023-12-04T07:58:06;97919.28;;;2.77;44.45
36284;BME280;56085;48.910;9.478;2023-12-04T08:00:31;97919.63;;;2.75;44.17
36284;BME280;56085;48.910;9.478;2023-12-04T08:02:56;97905.66;;;2.77;44.10
36284;BME280;56085;48.910;9.478;2023-12-04T08:05:23;97910.13;;;2.82;44.21
36284;BME280;56085;48.910;9.478;2023-12-04T08:07:48;97908.38;;;2.86;43.77
36284;BME280;56085;48.910;9.478;2023-12-04T08:10:13;97912.09;;;2.81;44.23
36284;BME280;56085;48.910;9.478;2023-12-04T08:12:39;97914.97;;;2.93;44.12
36284;BME280;56085;48.910;9.478;2023-12-04T08:15:05;97910.47;;;2.89;43.84
36284;BME280;56085;48.910;9.478;2023-12-04T08:17:30;97901.97;;;3.17;43.40
36284;BME280;56085;48.910;9.478;2023-12-04T08:19:55;97898.91;;;3.27;44.05
36284;BME280;56085;48.910;9.478;2023-12-04T08:22:21;97882.81;;;3.43;43.41
36284;BME280;56085;48.910;9.478;2023-12-04T08:24:46;97884.41;;;3.53;43.42
36284;BME280;56085;48.910;9.478;2023-12-04T08:27:11;97885.84;;;3.59;43.40
36284;BME280;56085;48.910;9.478;2023-12-04T08:29:39;97872.16;;;3.67;43.41
36284;BME280;56085;48.910;9.478;2023-12-04T08:32:04;97864.59;;;3.73;42.82
36284;BME280;56085;48.910;9.478;2023-12-04T08:34:30;97868.94;;;3.74;42.88
36284;BME280;56085;48.910;9.478;2023-12-04T08:36:56;97867.94;;;3.79;43.02
36284;BME280;56085;48.910;9.478;2023-12-04T08:39:21;97867.31;;;3.73;43.05
36284;BME280;56085;48.910;9.478;2023-12-04T08:41:47;97868.59;;;3.76;42.99
36284;BME280;56085;48.910;9.478;2023-12-04T08:44:13;97874.38;;;3.83;42.50
36284;BME280;56085;48.910;9.478;2023-12-04T08:46:39;97875.72;;;3.59;42.92
36284;BME280;56085;48.910;9.478;2023-12-04T08:49:05;97873.34;;;3.49;42.92
36284;BME280;56085;48.910;9.478;2023-12-04T08:51:30;97865.69;;;3.72;42.64
36284;BME280;56085;48.910;9.478;2023-12-04T08:53:56;97856.78;;;3.93;43.07
36284;BME280;56085;48.910;9.478;2023-12-04T08:56:21;97866.06;;;4.09;42.58
36284;BME280;56085;48.910;9.478;2023-12-04T08:58:46;97858.22;;;3.99;42.17
36284;BME280;56085;48.910;9.478;2023-12-04T09:01:12;97853.47;;;4.17;42.77
36284;BME280;56085;48.910;9.478;2023-12-04T09:03:37;97859.06;;;4.29;42.43
36284;BME280;56085;48.910;9.478;2023-12-04T09:06:03;97856.38;;;4.42;42.26
36284;BME280;56085;48.910;9.478;2023-12-04T09:08:28;97855.50;;;4.29;42.58
36284;BME280;56085;48.910;9.478;2023-12-04T09:10:53;97861.06;;;4.41;42.18
36284;BME280;56085;48.910;9.478;2023-12-04T09:13:19;97856.81;;;4.52;42.27
36284;BME280;56085;48.910;9.478;2023-12-04T09:15:44;97858.47;;;4.45;42.49
36284;BME280;56085;48.910;9.478;2023-12-04T09:18:09;97864.84;;;4.58;42.78
36284;BME280;56085;48.910;9.478;2023-12-04T09:20:34;97859.06;;;4.50;42.56
36284;BME280;56085;48.910;9.478;2023-12-04T09:23:00;97866.13;;;4.60;42.55
36284;BME280;56085;48.910;9.478;2023-12-04T09:25:25;97876.50;;;4.46;42.39
36284;BME280;56085;48.910;9.478;2023-12-04T09:27:51;97860.47;;;4.57;42.14
36284;BME280;56085;48.910;9.478;2023-12-04T09:30:16;97858.50;;;4.66;42.26
36284;BME280;56085;48.910;9.478;2023-12-04T09:32:42;97863.97;;;4.66;42.32
36284;BME280;56085;48.910;9.478;2023-12-04T09:35:07;97872.94;;;4.75;41.58
36284;BME280;56085;48.910;9.478;2023-12-04T09:37:32;97889.06;;;4.47;42.11
36284;BME280;56085;48.910;9.478;2023-12-04T09:39:58;97883.50;;;4.55;42.48
36284;BME280;56085;48.910;9.478;2023-12-04T09:42:23;97888.75;;;4.69;42.21
36284;BME280;56085;48.910;9.478;2023-12-04T09:44:50;97887.41;;;4.76;42.22
36284;BME280;56085;48.910;9.478;2023-12-04T09:47:20;97888.38;;;4.80;42.43
36284;BME280;56085;48.910;9.478;2023-12-04T09:49:47;97869.56;;;4.90;42.15
36284;BME280;56085;48.910;9.478;2023-12-04T09:52:13;97857.75;;;4.99;41.80
36284;BME280;56085;48.910;9.478;2023-12-04T09:54:40;97842.19;;;5.12;41.92
36284;BME280;56085;48.910;9.478;2023-12-04T09:57:06;97851.19;;;5.12;42.28
36284;BME280;56085;48.910;9.478;2023-12-04T09:59:31;97864.97;;;5.03;42.16
36284;BME280;56085;48.910;9.478;2023-12-04T10:01:57;97844.31;;;5.06;42.18
36284;BME280;56085;48.910;9.478;2023-12-04T10:04:24;97833.97;;;5.12;42.18
36284;BME280;56085;48.910;9.478;2023-12-04T10:06:51;97841.91;;;5.04;42.24
36284;BME280;56085;48.910;9.478;2023-12-04T10:09:18;97836.78;;;5.03;42.26
36284;BME280;56085;48.910;9.478;2023-12-04T10:11:44;97833.97;;;5.12;42.24
36284;BME280;56085;48.910;9.478;2023-12-04T10:14:18;97843.06;;;5.03;42.29
36284;BME280;56085;48.910;9.478;2023-12-04T10:16:44;97836.09;;;5.06;42.45
36284;BME280;56085;48.910;9.478;2023-12-04T10:19:21;97842.03;;;5.08;42.65
36284;BME280;56085;48.910;9.478;2023-12-04T10:21:49;97842.19;;;4.90;42.13
36284;BME280;56085;48.910;9.478;2023-12-04T10:24:35;97847.53;;;4.87;42.75
36284;BME280;56085;48.910;9.478;2023-12-04T10:27:09;97836.09;;;5.06;42.68
36284;BME280;56085;48.910;9.478;2023-12-04T10:29:43;97827.38;;;5.25;42.43
36284;BME280;56085;48.910;9.478;2023-12-04T10:32:09;97833.47;;;5.31;42.32
36284;BME280;56085;48.910;9.478;2023-12-04T10:34:34;97829.94;;;5.30;41.89
36284;BME280;56085;48.910;9.478;2023-12-04T10:37:00;97825.94;;;5.40;41.93
36284;BME280;56085;48.910;9.478;2023-12-04T10:39:26;97813.50;;;5.42;42.08
36284;BME280;56085;48.910;9.478;2023-12-04T10:42:03;97819.44;;;5.45;42.21
36284;BME280;56085;48.910;9.478;2023-12-04T10:44:30;97816.69;;;5.45;42.38
36284;BME280;56085;48.910;9.478;2023-12-04T10:46:56;97804.00;;;5.40;42.02
36284;BME280;56085;48.910;9.478;2023-12-04T10:49:26;97808.94;;;5.47;42.11
36284;BME280;56085;48.910;9.478;2023-12-04T10:51:55;97808.69;;;5.27;41.98
36284;BME280;56085;48.910;9.478;2023-12-04T10:54:21;97806.38;;;5.29;41.35
36284;BME280;56085;48.910;9.478;2023-12-04T10:56:48;97804.63;;;5.58;41.13
36284;BME280;56085;48.910;9.478;2023-12-04T10:59:18;97797.41;;;5.53;41.06
36284;BME280;56085;48.910;9.478;2023-12-04T11:01:46;97809.44;;;5.73;41.35
36284;BME280;56085;48.910;9.478;2023-12-04T11:04:17;97808.63;;;5.60;41.38
36284;BME280;56085;48.910;9.478;2023-12-04T11:06:49;97808.66;;;5.73;40.42
36284;BME280;56085;48.910;9.478;2023-12-04T11:09:17;97802.81;;;5.74;41.11
36284;BME280;56085;48.910;9.478;2023-12-04T11:11:46;97802.38;;;5.27;41.57
36284;BME280;56085;48.910;9.478;2023-12-04T11:14:16;97794.66;;;5.07;41.39
36284;BME280;56085;48.910;9.478;2023-12-04T11:16:48;97790.22;;;5.15;41.71
36284;BME280;56085;48.910;9.478;2023-12-04T11:19:29;97785.06;;;5.47;41.35
36284;BME280;56085;48.910;9.478;2023-12-04T11:21:58;97772.50;;;5.46;41.15
36284;BME280;56085;48.910;9.478;2023-12-04T11:24:24;97764.19;;;5.80;41.09
36284;BME280;56085;48.910;9.478;2023-12-04T11:26:50;97746.38;;;5.86;41.03
36284;BME280;56085;48.910;9.478;2023-12-04T11:29:16;97735.72;;;5.97;40.86
36284;BME280;56085;48.910;9.478;2023-12-04T11:31:42;97728.88;;;6.03;40.46
36284;BME280;56085;48.910;9.478;2023-12-04T11:34:08;97718.31;;;6.29;40.91
36284;BME280;56085;48.910;9.478;2023-12-04T11:36:37;97720.03;;;6.22;40.90
36284;BME280;56085;48.910;9.478;2023-12-04T11:39:02;97703.81;;;6.17;41.30
36284;BME280;56085;48.910;9.478;2023-12-04T11:41:29;97706.91;;;6.15;41.40
36284;BME280;56085;48.910;9.478;2023-12-04T11:43:56;97708.63;;;6.07;41.11
36284;BME280;56085;48.910;9.478;2023-12-04T11:46:25;97707.63;;;6.12;41.61
36284;BME280;56085;48.910;9.478;2023-12-04T11:49:26;97717.56;;;6.04;41.58
36284;BME280;56085;48.910;9.478;2023-12-04T11:54:08;97718.47;;;6.08;41.13
36284;BME280;56085;48.910;9.478;2023-12-04T11:56:33;97718.22;;;5.76;41.60
36284;BME280;56085;48.910;9.478;2023-12-04T11:59:03;97717.66;;;5.58;41.42
36284;BME280;56085;48.910;9.478;2023-12-04T12:01:33;97720.88;;;5.48;41.33
36284;BME280;56085;48.910;9.478;2023-12-04T12:03:59;97715.16;;;5.66;41.94
36284;BME280;56085;48.910;9.478;2023-12-04T12:06:26;97702.69;;;5.81;41.76
36284;BME280;56085;48.910;9.478;2023-12-04T12:08:51;97698.25;;;6.01;41.06
36284;BME280;56085;48.910;9.478;2023-12-04T12:11:17;97686.22;;;6.05;41.49
36284;BME280;56085;48.910;9.478;2023-12-04T12:13:43;97675.03;;;6.10;41.41
36284;BME280;56085;48.910;9.478;2023-12-04T12:16:10;97660.47;;;6.22;41.11
36284;BME280;56085;48.910;9.478;2023-12-04T12:18:36;97662.31;;;6.18;40.86
36284;BME280;56085;48.910;9.478;2023-12-04T12:21:01;97651.41;;;6.22;41.21
36284;BME280;56085;48.910;9.478;2023-12-04T12:23:27;97645.47;;;6.20;41.62
36284;BME280;56085;48.910;9.478;2023-12-04T12:25:52;97621.72;;;6.11;41.79
36284;BME280;56085;48.910;9.478;2023-12-04T12:28:17;97618.88;;;6.08;41.86
36284;BME280;56085;48.910;9.478;2023-12-04T12:30:44;97609.69;;;6.16;41.80
36284;BME280;56085;48.910;9.478;2023-12-04T12:33:13;97607.69;;;6.01;42.08
36284;BME280;56085;48.910;9.478;2023-12-04T12:35:38;97601.25;;;5.97;41.86
36284;BME280;56085;48.910;9.478;2023-12-04T12:38:03;97595.09;;;6.12;41.80
36284;BME280;56085;48.910;9.478;2023-12-04T12:40:29;97588.81;;;6.27;41.91
36284;BME280;56085;48.910;9.478;2023-12-04T12:43:04;97597.97;;;6.32;42.03
36284;BME280;56085;48.910;9.478;2023-12-04T12:45:38;97597.22;;;6.19;41.44
36284;BME280;56085;48.910;9.478;2023-12-04T12:48:04;97583.91;;;5.92;41.84
36284;BME280;56085;48.910;9.478;2023-12-04T12:50:31;97574.69;;;6.13;41.73
36284;BME280;56085;48.910;9.478;2023-12-04T12:52:56;97558.97;;;6.26;41.44
36284;BME280;56085;48.910;9.478;2023-12-04T12:55:23;97552.63;;;6.38;41.31
36284;BME280;56085;48.910;9.478;2023-12-04T12:57:51;97553.16;;;6.43;41.51
36284;BME280;56085;48.910;9.478;2023-12-04T13:00:17;97553.84;;;6.24;41.77
36284;BME280;56085;48.910;9.478;2023-12-04T13:02:44;97548.53;;;6.32;41.63
36284;BME280;56085;48.910;9.478;2023-12-04T13:05:09;97558.69;;;6.15;41.81
36284;BME280;56085;48.910;9.478;2023-12-04T13:07:35;97554.34;;;6.14;41.96